Time;durP1;ratioP1;P1;durP2;ratioP2;P2;SDS_P1;SDS_P2;PMS_P1;PMS_P2;Temp;Humidity;BMP_temperature;BMP_pressure;BME280_temperature;BME280_humidity;BME280_pressure;Samples;Min_cycle;Max_cycle;Signal;HPM_P1;HPM_P2
2024/03/01 05:00:13;;;;;;;7.47;5.47;;;3.00;99.90;;;;;;6076350;23;20278;31
2024/03/01 05:02:41;;;;;;;21.05;10.35;;;3.10;99.90;;;;;;4965027;28;20220;-69
2024/03/01 05:05:08;;;;;;;11.18;8.98;;;3.10;99.90;;;;;;4980646;28;20236;-68
2024/03/01 05:07:35;;;;;;;13.68;9.70;;;3.00;99.90;;;;;;4964460;28;20589;-69
2024/03/01 05:10:08;;;;;;;11.52;8.15;;;3.00;99.90;;;;;;4968135;28;20233;-69
2024/03/01 05:12:36;;;;;;;10.88;8.25;;;3.00;99.90;;;;;;4950113;28;20297;-68
2024/03/01 05:15:04;;;;;;;18.27;7.43;;;3.00;99.90;;;;;;4945517;28;20273;-67
2024/03/01 05:17:32;;;;;;;14.85;7.05;;;2.90;99.90;;;;;;4953743;28;20206;-67
2024/03/01 05:19:59;;;;;;;14.60;9.73;;;2.90;99.90;;;;;;4955135;28;20226;-69
2024/03/01 05:22:26;;;;;;;14.48;9.57;;;2.90;99.90;;;;;;4953136;28;20236;-67
2024/03/01 05:24:52;;;;;;;19.17;7.55;;;2.90;99.90;;;;;;4955037;28;20202;-67
2024/03/01 05:27:19;;;;;;;14.40;8.35;;;2.90;99.90;;;;;;4950606;28;20736;-68
2024/03/01 05:29:46;;;;;;;9.20;7.75;;;2.80;99.90;;;;;;4944931;28;20209;-67
2024/03/01 05:32:12;;;;;;;15.70;9.40;;;2.80;99.90;;;;;;4939392;28;20253;-67
2024/03/01 05:34:41;;;;;;;17.40;10.93;;;2.80;99.90;;;;;;4944991;28;20613;-67
2024/03/01 05:37:07;;;;;;;14.77;9.30;;;2.80;99.90;;;;;;4956241;28;20241;-67
2024/03/01 05:39:34;;;;;;;13.27;9.38;;;2.80;99.90;;;;;;4953922;28;20560;-68
2024/03/01 05:42:01;;;;;;;15.75;9.23;;;2.80;99.90;;;;;;4954990;28;20325;-68
2024/03/01 05:44:27;;;;;;;19.40;10.07;;;2.80;99.90;;;;;;4947042;28;20202;-68
2024/03/01 05:46:54;;;;;;;15.05;9.15;;;2.80;99.90;;;;;;4944557;28;20220;-68
2024/03/01 05:49:21;;;;;;;14.77;7.30;;;2.80;99.90;;;;;;4950106;28;20790;-68
2024/03/01 05:51:49;;;;;;;15.18;10.02;;;2.80;99.90;;;;;;4956683;28;20725;-68
2024/03/01 05:54:16;;;;;;;18.95;7.22;;;2.80;99.90;;;;;;4943911;28;20316;-68
2024/03/01 05:56:45;;;;;;;18.70;9.60;;;2.80;99.90;;;;;;4948786;28;20210;-68
2024/03/01 05:59:12;;;;;;;17.75;6.63;;;2.70;99.90;;;;;;4957499;28;20225;-68
2024/03/01 06:01:39;;;;;;;18.70;7.18;;;2.70;99.90;;;;;;4950031;28;20240;-68
2024/03/01 06:04:10;;;;;;;15.95;9.45;;;2.70;99.90;;;;;;4943818;28;20605;-68
2024/03/01 06:06:37;;;;;;;12.98;8.20;;;2.70;99.90;;;;;;4943787;28;20211;-68
2024/03/01 06:09:05;;;;;;;29.05;11.75;;;2.70;99.90;;;;;;4948078;28;20251;-69
2024/03/01 06:11:32;;;;;;;20.60;13.32;;;2.70;99.90;;;;;;4950408;28;20227;-68
2024/03/01 06:13:59;;;;;;;18.40;10.32;;;2.80;99.90;;;;;;4954867;28;20720;-68
2024/03/01 06:16:26;;;;;;;9.00;6.13;;;2.70;99.90;;;;;;4954573;28;20232;-68
2024/03/01 06:18:52;;;;;;;18.55;9.65;;;2.80;99.90;;;;;;4953405;28;20214;-68
2024/03/01 06:21:23;;;;;;;24.92;9.38;;;2.80;99.90;;;;;;4947000;28;20227;-68
2024/03/01 06:23:50;;;;;;;20.83;13.85;;;2.80;99.90;;;;;;4951666;28;20230;-67
2024/03/01 06:26:18;;;;;;;18.92;10.82;;;2.80;99.90;;;;;;4945267;28;20205;-70
2024/03/01 06:28:44;;;;;;;32.67;15.48;;;2.80;99.90;;;;;;4942555;28;20207;-67
2024/03/01 06:31:11;;;;;;;26.00;11.40;;;2.80;99.90;;;;;;4948134;28;20258;-67
2024/03/01 06:33:40;;;;;;;35.08;17.85;;;2.80;99.90;;;;;;4948164;28;20222;-68
2024/03/01 06:36:08;;;;;;;24.10;14.13;;;2.80;99.90;;;;;;4950253;28;20225;-68
2024/03/01 06:38:35;;;;;;;49.38;23.08;;;2.80;99.90;;;;;;4955011;28;20300;-68
2024/03/01 06:41:03;;;;;;;17.08;9.93;;;2.80;99.90;;;;;;4947143;28;20233;-67
2024/03/01 06:43:31;;;;;;;19.20;10.27;;;2.90;99.90;;;;;;4952143;28;20277;-68
2024/03/01 06:45:58;;;;;;;26.92;12.57;;;2.90;99.90;;;;;;4951682;28;20228;-67
2024/03/01 06:48:25;;;;;;;22.90;12.43;;;2.90;99.90;;;;;;4953205;28;20290;-68
2024/03/01 06:50:52;;;;;;;36.28;13.05;;;3.00;99.90;;;;;;4949205;28;20233;-68
2024/03/01 06:53:18;;;;;;;23.25;13.25;;;3.00;99.90;;;;;;4949221;28;20298;-67
2024/03/01 06:55:45;;;;;;;28.92;14.05;;;3.00;99.90;;;;;;4949050;28;20230;-68
2024/03/01 06:58:12;;;;;;;19.48;12.25;;;3.00;99.90;;;;;;4950573;28;20214;-68
2024/03/01 07:00:45;;;;;;;17.48;13.25;;;3.00;99.90;;;;;;4941686;28;20249;-68
2024/03/01 07:03:11;;;;;;;20.35;11.07;;;3.10;99.90;;;;;;4945467;28;20596;-68
2024/03/01 07:05:38;;;;;;;22.67;11.18;;;3.10;99.90;;;;;;4951591;28;20209;-68
2024/03/01 07:08:06;;;;;;;20.02;10.57;;;3.20;99.90;;;;;;4946621;28;20230;-68
2024/03/01 07:10:32;;;;;;;31.33;14.18;;;3.20;99.90;;;;;;4950808;28;20231;-68
2024/03/01 07:12:59;;;;;;;17.88;11.02;;;3.20;99.90;;;;;;4950405;28;20222;-68
2024/03/01 07:15:27;;;;;;;21.08;11.13;;;3.20;99.90;;;;;;4951281;28;20225;-68
2024/03/01 07:17:55;;;;;;;22.45;12.18;;;3.10;99.90;;;;;;4949946;28;20204;-68
2024/03/01 07:20:22;;;;;;;22.40;11.80;;;3.20;99.90;;;;;;4948706;28;20656;-67
2024/03/01 07:22:49;;;;;;;14.98;11.05;;;3.20;99.90;;;;;;4952753;28;20690;-68
2024/03/01 07:25:16;;;;;;;22.33;11.88;;;3.30;99.90;;;;;;4948188;28;20641;-68
2024/03/01 07:27:42;;;;;;;18.33;10.10;;;3.40;99.90;;;;;;4947475;28;20207;-68
2024/03/01 07:30:10;;;;;;;21.77;10.57;;;3.50;99.90;;;;;;4940916;28;20210;-68
2024/03/01 07:32:37;;;;;;;21.02;11.40;;;3.60;99.90;;;;;;4948153;28;20213;-68
2024/03/01 07:35:06;;;;;;;19.23;12.75;;;3.70;99.90;;;;;;4943837;28;20235;-68
2024/03/01 07:37:33;;;;;;;24.20;10.77;;;3.70;99.90;;;;;;4947281;28;20209;-68
2024/03/01 07:40:00;;;;;;;14.52;11.77;;;3.70;99.90;;;;;;4954292;28;20236;-68
2024/03/01 07:42:27;;;;;;;23.65;13.27;;;3.70;99.90;;;;;;4946993;28;20638;-68
2024/03/01 07:44:55;;;;;;;20.23;10.85;;;3.70;99.90;;;;;;4943477;28;20593;-68
2024/03/01 07:47:24;;;;;;;20.65;12.00;;;3.70;99.90;;;;;;4938666;28;20634;-68
2024/03/01 07:49:51;;;;;;;18.42;9.18;;;3.70;99.90;;;;;;4945610;29;20571;-69
2024/03/01 07:52:19;;;;;;;22.90;9.98;;;3.80;99.90;;;;;;4952879;28;20708;-68
2024/03/01 07:54:46;;;;;;;18.95;10.00;;;4.00;99.90;;;;;;4948009;28;20334;-69
2024/03/01 07:57:12;;;;;;;19.55;11.40;;;4.00;99.90;;;;;;4941187;28;20583;-68
2024/03/01 07:59:40;;;;;;;23.90;13.05;;;4.00;99.90;;;;;;4941228;28;20215;-69
2024/03/01 08:02:10;;;;;;;14.15;9.68;;;4.10;99.90;;;;;;4941460;28;20737;-69
2024/03/01 08:04:37;;;;;;;12.85;9.25;;;4.20;99.90;;;;;;4942527;28;20220;-68
2024/03/01 08:07:06;;;;;;;8.80;7.57;;;4.30;99.90;;;;;;4944154;28;20208;-68
2024/03/01 08:09:40;;;;;;;19.75;11.02;;;4.40;99.90;;;;;;4938727;28;20218;-68
2024/03/01 08:12:11;;;;;;;28.73;13.65;;;4.40;99.90;;;;;;4939042;28;20228;-68
2024/03/01 08:14:38;;;;;;;25.13;11.45;;;4.40;99.90;;;;;;4943344;28;20778;-69
2024/03/01 08:17:06;;;;;;;20.75;10.65;;;4.50;99.90;;;;;;4949509;28;20627;-68
2024/03/01 08:19:35;;;;;;;22.35;11.93;;;4.50;99.90;;;;;;4944847;28;20205;-68
2024/03/01 08:22:08;;;;;;;22.02;9.93;;;4.70;99.90;;;;;;4947221;28;20579;-69
2024/03/01 08:24:38;;;;;;;17.90;11.55;;;4.80;99.90;;;;;;4948040;28;20199;-69
2024/03/01 08:27:05;;;;;;;20.65;10.68;;;4.80;99.90;;;;;;4940666;28;20220;-67
2024/03/01 08:29:33;;;;;;;29.75;14.50;;;5.00;99.90;;;;;;4942088;28;20213;-68
2024/03/01 08:32:00;;;;;;;17.73;11.10;;;5.00;99.90;;;;;;4939952;28;20749;-68
2024/03/01 08:34:31;;;;;;;27.67;13.18;;;5.10;99.90;;;;;;4945631;28;20294;-68
2024/03/01 08:36:58;;;;;;;27.38;13.88;;;5.10;99.90;;;;;;4939823;28;20218;-67
2024/03/01 08:39:27;;;;;;;28.85;17.90;;;5.10;99.90;;;;;;4940565;28;20213;-68
2024/03/01 08:41:59;;;;;;;29.23;14.48;;;5.10;99.90;;;;;;4949797;28;20247;-68
2024/03/01 08:44:53;;;;;;;31.73;16.30;;;5.20;99.90;;;;;;4943932;28;20681;-68
2024/03/01 08:47:25;;;;;;;28.27;11.52;;;5.20;99.90;;;;;;4941344;28;20202;-68
2024/03/01 08:50:25;;;;;;;35.38;18.45;;;5.40;99.90;;;;;;4951477;28;20563;-68
2024/03/01 08:52:52;;;;;;;31.02;14.93;;;5.50;99.90;;;;;;4952232;28;20212;-68
2024/03/01 08:55:43;;;;;;;29.23;13.93;;;5.50;99.90;;;;;;4951612;28;20228;-68
2024/03/01 08:58:25;;;;;;;23.40;11.52;;;5.60;99.90;;;;;;4954756;28;20260;-68
2024/03/01 09:00:53;;;;;;;33.78;14.98;;;5.80;99.90;;;;;;4954776;28;20752;-68
2024/03/01 09:03:23;;;;;;;21.67;14.07;;;5.90;99.90;;;;;;4954161;28;20656;-68
2024/03/01 09:05:52;;;;;;;23.58;12.10;;;6.00;99.90;;;;;;4954882;28;20213;-68
2024/03/01 09:08:23;;;;;;;27.25;13.50;;;6.00;99.90;;;;;;4951174;29;20740;-68
2024/03/01 09:10:52;;;;;;;27.13;13.07;;;6.20;99.90;;;;;;4949040;28;20236;-68
2024/03/01 09:13:21;;;;;;;12.48;8.52;;;6.40;99.90;;;;;;4948174;28;20289;-68
2024/03/01 09:15:50;;;;;;;23.27;10.73;;;6.50;99.90;;;;;;4953173;28;20324;-68
2024/03/01 09:18:42;;;;;;;22.33;14.45;;;6.70;99.90;;;;;;4956486;28;20634;-68
2024/03/01 09:21:46;;;;;;;19.08;10.48;;;6.80;99.90;;;;;;4953046;28;20723;-68
2024/03/01 09:24:15;;;;;;;22.88;10.13;;;6.80;99.90;;;;;;4947302;28;20217;-68
2024/03/01 09:26:43;;;;;;;16.27;9.13;;;6.80;99.90;;;;;;4943652;28;20686;-68
2024/03/01 09:29:30;;;;;;;17.48;9.60;;;7.00;99.90;;;;;;4950261;28;20673;-68
2024/03/01 09:31:58;;;;;;;24.08;10.82;;;7.10;99.90;;;;;;4949299;28;20689;-68
2024/03/01 09:34:30;;;;;;;27.95;13.07;;;7.20;99.90;;;;;;4946544;28;20312;-68
2024/03/01 09:36:58;;;;;;;15.30;8.70;;;7.30;99.90;;;;;;4945822;28;20207;-68
2024/03/01 09:39:24;;;;;;;15.77;9.05;;;7.50;99.90;;;;;;4946306;28;20559;-68
2024/03/01 09:42:01;;;;;;;12.43;7.90;;;7.70;99.90;;;;;;4950962;28;20233;-68
2024/03/01 09:44:46;;;;;;;17.17;9.57;;;7.90;99.90;;;;;;4946750;28;20316;-68
2024/03/01 09:47:23;;;;;;;20.08;9.70;;;8.10;99.90;;;;;;4943001;28;20231;-68
2024/03/01 09:50:08;;;;;;;15.90;8.98;;;8.10;99.90;;;;;;4952425;28;20305;-68
2024/03/01 09:52:45;;;;;;;17.15;8.90;;;8.20;99.90;;;;;;4948780;28;20212;-68
2024/03/01 09:55:23;;;;;;;19.98;11.23;;;8.30;99.90;;;;;;4951332;28;20329;-68
2024/03/01 09:58:01;;;;;;;15.23;8.70;;;8.40;99.90;;;;;;4952743;28;20215;-68
2024/03/01 10:00:32;;;;;;;20.52;11.85;;;8.50;99.90;;;;;;4945814;28;20215;-68
2024/03/01 10:03:11;;;;;;;22.65;10.68;;;8.60;99.90;;;;;;4946972;28;20212;-68
2024/03/01 10:05:55;;;;;;;22.45;9.50;;;8.70;99.90;;;;;;4942598;28;20242;-68
2024/03/01 10:08:27;;;;;;;12.45;8.68;;;8.80;99.90;;;;;;4948975;29;20239;-68
2024/03/01 10:11:12;;;;;;;21.17;11.32;;;8.80;99.90;;;;;;4949332;28;20235;-68
2024/03/01 10:13:48;;;;;;;7.28;6.35;;;8.90;99.90;;;;;;4946635;28;20686;-68
2024/03/01 10:16:29;;;;;;;18.27;9.57;;;9.10;99.90;;;;;;4954133;28;20316;-68
2024/03/01 10:19:04;;;;;;;15.45;8.48;;;9.20;99.90;;;;;;4950930;28;20682;-67
2024/03/01 10:21:56;;;;;;;16.75;9.02;;;9.20;99.90;;;;;;4952534;28;20228;-68
2024/03/01 10:24:29;;;;;;;14.30;8.52;;;9.30;99.90;;;;;;4953207;28;20239;-68
2024/03/01 10:27:03;;;;;;;14.70;9.07;;;9.40;99.90;;;;;;4950845;28;20813;-68
2024/03/01 10:29:47;;;;;;;14.70;8.35;;;9.40;99.90;;;;;;4946607;28;20233;-70
2024/03/01 10:32:29;;;;;;;16.58;7.50;;;9.60;99.90;;;;;;4944302;28;20568;-70
2024/03/01 10:35:03;;;;;;;25.83;10.35;;;9.60;99.90;;;;;;4939825;28;20767;-68
2024/03/01 10:37:35;;;;;;;18.92;10.45;;;9.70;99.90;;;;;;4944188;28;20206;-69
2024/03/01 10:40:10;;;;;;;13.45;8.48;;;9.80;99.90;;;;;;4947007;28;20209;-69
2024/03/01 10:42:41;;;;;;;13.27;8.13;;;9.80;99.90;;;;;;4951508;28;20232;-69
2024/03/01 10:45:11;;;;;;;14.30;7.25;;;9.80;99.90;;;;;;4953811;28;20245;-68
2024/03/01 10:47:41;;;;;;;17.73;7.93;;;9.90;99.90;;;;;;4951826;28;20220;-68
2024/03/01 10:50:14;;;;;;;19.98;10.57;;;9.90;99.90;;;;;;4953724;28;20673;-70
2024/03/01 10:52:45;;;;;;;17.60;9.85;;;9.90;99.90;;;;;;4948978;28;20236;-69
2024/03/01 10:55:18;;;;;;;14.02;8.15;;;9.90;99.90;;;;;;4948494;28;20216;-68
2024/03/01 10:57:51;;;;;;;16.55;8.20;;;10.00;99.90;;;;;;4952456;28;20262;-67
2024/03/01 11:00:22;;;;;;;13.48;7.30;;;10.20;99.90;;;;;;4949461;28;20253;-67
2024/03/01 11:03:00;;;;;;;12.52;6.85;;;10.30;99.90;;;;;;4953240;28;20210;-68
2024/03/01 11:05:36;;;;;;;20.13;7.90;;;10.50;99.90;;;;;;4953232;28;20211;-67
2024/03/01 11:08:21;;;;;;;16.27;7.90;;;10.60;99.90;;;;;;4952409;28;20212;-67
2024/03/01 11:10:57;;;;;;;10.57;6.72;;;10.60;99.90;;;;;;4949282;28;20233;-69
2024/03/01 11:13:27;;;;;;;15.85;8.07;;;10.70;99.90;;;;;;4953012;28;20205;-69
2024/03/01 11:15:56;;;;;;;12.00;7.00;;;10.80;99.90;;;;;;4953033;28;20263;-70
2024/03/01 11:18:31;;;;;;;14.95;9.10;;;11.10;99.90;;;;;;4950703;28;20524;-69
2024/03/01 11:21:03;;;;;;;19.20;7.73;;;11.20;99.90;;;;;;4941659;28;20240;-69
2024/03/01 11:23:33;;;;;;;10.03;7.50;;;11.20;99.90;;;;;;4950015;28;20467;-70
2024/03/01 11:26:07;;;;;;;9.10;6.60;;;11.20;99.90;;;;;;4948532;29;20481;-70
2024/03/01 11:28:34;;;;;;;11.50;6.33;;;11.20;99.90;;;;;;4950165;28;20469;-70
2024/03/01 11:31:07;;;;;;;16.87;8.30;;;11.20;99.90;;;;;;4948412;28;20499;-70
2024/03/01 11:33:40;;;;;;;11.23;7.53;;;11.10;99.90;;;;;;4950956;28;20497;-70
2024/03/01 11:36:21;;;;;;;14.37;6.50;;;11.10;99.90;;;;;;4953715;28;21035;-70
2024/03/01 11:38:58;;;;;;;10.70;6.00;;;11.00;99.90;;;;;;4952880;28;20473;-69
2024/03/01 11:41:37;;;;;;;6.30;5.37;;;11.00;99.90;;;;;;4946985;28;21616;-68
2024/03/01 11:44:17;;;;;;;9.30;5.40;;;10.90;99.90;;;;;;4946808;28;20485;-69
2024/03/01 11:47:06;;;;;;;8.67;5.83;;;11.00;99.90;;;;;;4946008;28;20499;-69
2024/03/01 11:49:53;;;;;;;14.87;7.40;;;11.20;99.90;;;;;;4948501;28;20470;-69
2024/03/01 11:52:58;;;;;;;11.90;6.77;;;11.30;99.90;;;;;;4949935;29;20490;-68
2024/03/01 11:55:37;;;;;;;6.83;4.90;;;11.30;99.90;;;;;;4950150;29;20903;-68
2024/03/01 11:58:12;;;;;;;6.33;5.73;;;11.30;99.90;;;;;;4948499;28;20966;-68
2024/03/01 12:00:53;;;;;;;8.70;6.07;;;11.30;99.90;;;;;;4948159;28;20505;-68
2024/03/01 12:03:54;;;;;;;10.13;5.50;;;11.40;99.90;;;;;;4951048;29;20471;-67
2024/03/01 12:06:34;;;;;;;7.33;5.37;;;11.50;99.90;;;;;;4932358;29;20870;-68
2024/03/01 12:09:08;;;;;;;8.97;5.33;;;11.60;99.90;;;;;;4951516;28;20472;-69
2024/03/01 12:11:47;;;;;;;10.63;5.50;;;11.60;99.90;;;;;;4950944;29;20589;-69
2024/03/01 12:14:31;;;;;;;8.00;6.00;;;11.80;99.90;;;;;;4952596;28;20460;-69
2024/03/01 12:17:08;;;;;;;11.30;5.70;;;11.90;99.90;;;;;;4947724;28;20492;-69
2024/03/01 12:19:42;;;;;;;15.63;5.40;;;11.90;99.90;;;;;;4949292;28;20562;-69
2024/03/01 12:22:38;;;;;;;9.60;4.93;;;12.00;99.90;;;;;;4952085;28;20575;-69
2024/03/01 12:25:05;;;;;;;8.47;5.00;;;12.10;99.90;;;;;;4948037;29;20465;-69
2024/03/01 12:27:45;;;;;;;12.83;6.53;;;12.30;99.90;;;;;;4951537;28;20457;-70
2024/03/01 12:30:23;;;;;;;8.20;4.90;;;12.40;99.90;;;;;;4951762;28;20476;-69
2024/03/01 12:33:11;;;;;;;10.23;5.80;;;12.40;99.90;;;;;;4951930;28;20461;-70
2024/03/01 12:35:46;;;;;;;6.23;5.47;;;12.50;99.90;;;;;;4952283;28;20465;-69
2024/03/01 12:38:18;;;;;;;10.80;6.10;;;12.40;99.90;;;;;;4950776;28;20473;-70
2024/03/01 12:41:00;;;;;;;7.90;5.53;;;12.40;99.90;;;;;;4950208;28;20503;-69
2024/03/01 12:43:44;;;;;;;10.53;5.40;;;12.40;99.90;;;;;;4947528;28;20836;-70
2024/03/01 12:46:32;;;;;;;10.47;5.90;;;12.40;99.90;;;;;;4948771;28;20799;-69
2024/03/01 12:49:10;;;;;;;10.30;6.50;;;12.40;99.90;;;;;;4950470;28;20504;-70
2024/03/01 12:51:47;;;;;;;10.23;6.00;;;12.40;99.90;;;;;;4950665;28;20550;-70
2024/03/01 12:54:23;;;;;;;6.87;4.80;;;12.50;99.90;;;;;;4954260;28;20590;-69
2024/03/01 12:57:01;;;;;;;7.13;5.10;;;12.60;99.90;;;;;;4949813;28;20488;-70
2024/03/01 12:59:37;;;;;;;6.97;6.23;;;12.70;99.90;;;;;;4947620;28;20548;-70
2024/03/01 13:02:26;;;;;;;6.17;4.90;;;12.90;99.90;;;;;;4947808;28;20524;-69
2024/03/01 13:05:03;;;;;;;9.40;5.50;;;13.00;99.90;;;;;;4951577;28;20507;-69
2024/03/01 13:07:32;;;;;;;5.73;4.67;;;13.10;99.90;;;;;;4950233;28;20483;-69
2024/03/01 13:10:01;;;;;;;9.77;6.03;;;13.10;99.90;;;;;;4945679;28;20476;-69
2024/03/01 13:12:30;;;;;;;7.40;5.40;;;13.10;99.90;;;;;;4951282;28;21017;-69
2024/03/01 13:15:08;;;;;;;4.90;4.13;;;13.10;99.90;;;;;;4950358;28;20476;-69
2024/03/01 13:17:43;;;;;;;9.67;5.83;;;13.10;99.90;;;;;;4950553;28;20564;-69
2024/03/01 13:20:31;;;;;;;8.27;5.10;;;13.10;99.90;;;;;;4951766;28;20483;-69
2024/03/01 13:23:14;;;;;;;4.47;4.07;;;13.10;99.90;;;;;;4937854;29;20495;-69
2024/03/01 13:25:55;;;;;;;6.37;4.83;;;13.00;99.90;;;;;;4950362;28;20484;-69
2024/03/01 13:28:24;;;;;;;5.87;4.43;;;12.90;99.90;;;;;;4949948;28;20478;-69
2024/03/01 13:30:52;;;;;;;8.10;4.40;;;12.80;99.90;;;;;;4951067;28;20539;-69
2024/03/01 13:33:33;;;;;;;6.70;4.47;;;12.80;99.90;;;;;;4951720;28;20464;-69
2024/03/01 13:36:09;;;;;;;6.17;4.83;;;12.70;99.90;;;;;;4946322;28;20551;-69
2024/03/01 13:38:51;;;;;;;7.87;5.30;;;12.70;99.90;;;;;;4951497;28;20475;-69
2024/03/01 13:41:26;;;;;;;8.60;4.87;;;12.80;99.90;;;;;;4947350;28;20499;-69
2024/03/01 13:44:03;;;;;;;9.43;5.40;;;12.80;99.90;;;;;;4950674;28;20460;-69
2024/03/01 13:46:35;;;;;;;5.30;4.80;;;12.70;99.90;;;;;;4949477;28;20839;-69
2024/03/01 13:49:05;;;;;;;5.40;4.90;;;12.80;99.90;;;;;;4947893;28;20503;-68
2024/03/01 13:51:32;;;;;;;4.77;4.23;;;12.80;99.90;;;;;;4945390;28;20524;-68
2024/03/01 13:54:00;;;;;;;6.43;4.90;;;12.80;99.90;;;;;;4952435;28;20468;-69
2024/03/01 13:56:30;;;;;;;7.50;5.03;;;12.80;99.90;;;;;;4948034;28;20596;-69
2024/03/01 13:58:57;;;;;;;7.90;4.80;;;12.90;99.90;;;;;;4943510;28;20473;-69
2024/03/01 14:01:26;;;;;;;6.33;4.80;;;12.90;99.90;;;;;;4949630;28;20496;-69
2024/03/01 14:03:53;;;;;;;5.67;5.03;;;12.90;99.90;;;;;;4953194;28;20512;-69
2024/03/01 14:06:22;;;;;;;7.77;4.47;;;13.00;99.90;;;;;;4950270;28;20475;-69
2024/03/01 14:08:50;;;;;;;8.20;4.37;;;13.00;99.90;;;;;;4950659;28;20468;-69
2024/03/01 14:11:17;;;;;;;7.00;5.27;;;13.10;99.90;;;;;;4951611;28;20547;-70
2024/03/01 14:13:49;;;;;;;6.40;4.30;;;13.10;99.90;;;;;;4950240;28;20468;-69
2024/03/01 14:16:17;;;;;;;11.60;6.20;;;13.20;99.90;;;;;;4950611;28;20488;-69
2024/03/01 14:18:44;;;;;;;5.90;4.67;;;13.20;99.90;;;;;;4950264;28;20458;-68
2024/03/01 14:21:11;;;;;;;9.27;5.60;;;13.30;99.90;;;;;;4945822;28;20516;-68
2024/03/01 14:23:39;;;;;;;9.30;5.43;;;13.30;99.90;;;;;;4944175;28;20512;-69
2024/03/01 14:26:06;;;;;;;7.20;4.70;;;13.30;99.90;;;;;;4942494;28;21019;-68
2024/03/01 14:28:33;;;;;;;6.10;5.50;;;13.30;99.90;;;;;;4944527;28;20489;-68
2024/03/01 14:31:02;;;;;;;4.10;3.77;;;13.30;99.90;;;;;;4955541;28;20489;-69
2024/03/01 14:33:31;;;;;;;5.13;4.53;;;13.30;99.90;;;;;;4951905;28;21047;-69
2024/03/01 14:36:05;;;;;;;8.10;5.40;;;13.40;99.90;;;;;;4948521;28;20484;-69
2024/03/01 14:38:32;;;;;;;4.47;3.80;;;13.30;99.90;;;;;;4956665;28;20970;-69
2024/03/01 14:41:03;;;;;;;4.83;3.90;;;13.20;99.90;;;;;;4950779;28;20489;-69
2024/03/01 14:43:30;;;;;;;4.83;3.70;;;13.20;99.90;;;;;;4949391;28;20469;-69
2024/03/01 14:45:58;;;;;;;4.10;3.70;;;13.10;99.90;;;;;;4950052;28;20469;-69
2024/03/01 14:48:28;;;;;;;7.23;3.40;;;13.10;99.90;;;;;;4955557;28;20464;-69
2024/03/01 14:50:58;;;;;;;6.00;4.13;;;13.10;99.90;;;;;;4950459;28;20567;-69
2024/03/01 14:53:37;;;;;;;3.27;2.97;;;13.10;99.90;;;;;;4953913;28;20472;-69
2024/03/01 14:56:07;;;;;;;8.33;4.07;;;13.20;99.90;;;;;;4947271;28;20477;-69
2024/03/01 14:58:34;;;;;;;3.70;3.07;;;13.20;99.90;;;;;;4953914;28;20548;-68
2024/03/01 15:01:01;;;;;;;5.37;3.40;;;13.20;99.90;;;;;;4951388;28;20575;-67
2024/03/01 15:03:30;;;;;;;3.73;3.43;;;13.10;99.90;;;;;;4952707;28;20944;-68
2024/03/01 15:05:57;;;;;;;5.93;4.50;;;12.90;99.90;;;;;;4944397;28;20473;-68
2024/03/01 15:08:25;;;;;;;6.73;4.23;;;12.90;99.90;;;;;;4950092;28;20469;-68
2024/03/01 15:11:02;;;;;;;5.20;4.80;;;12.70;99.90;;;;;;4945752;28;20558;-68
2024/03/01 15:13:29;;;;;;;7.40;4.70;;;12.60;99.90;;;;;;4950463;28;20465;-68
2024/03/01 15:15:56;;;;;;;6.10;4.70;;;12.50;99.90;;;;;;4952123;28;20473;-68
2024/03/01 15:18:22;;;;;;;6.17;4.30;;;12.50;99.90;;;;;;4952306;28;20583;-68
2024/03/01 15:20:52;;;;;;;4.70;4.20;;;12.40;99.90;;;;;;4944238;28;20492;-67
2024/03/01 15:23:19;;;;;;;4.20;3.53;;;12.40;99.90;;;;;;4949982;29;20473;-67
2024/03/01 15:25:46;;;;;;;5.53;4.97;;;12.30;99.90;;;;;;4946792;28;20465;-67
2024/03/01 15:28:13;;;;;;;5.70;4.77;;;12.30;99.90;;;;;;4947931;28;20465;-67
2024/03/01 15:30:40;;;;;;;5.30;4.67;;;12.20;99.90;;;;;;4948270;28;20498;-67
2024/03/01 15:33:08;;;;;;;7.23;4.90;;;12.20;99.90;;;;;;4952339;28;20464;-69
2024/03/01 15:35:36;;;;;;;4.53;3.67;;;12.10;99.90;;;;;;4947780;28;20473;-69
2024/03/01 15:38:05;;;;;;;5.37;4.53;;;12.00;99.90;;;;;;4949488;28;20496;-68
2024/03/01 15:40:35;;;;;;;4.97;4.40;;;12.00;99.90;;;;;;4947425;28;20469;-69
2024/03/01 15:43:02;;;;;;;6.50;4.90;;;11.90;99.90;;;;;;4950795;28;20476;-70
2024/03/01 15:45:29;;;;;;;4.87;4.20;;;11.90;99.90;;;;;;4948984;28;20487;-69
2024/03/01 15:47:56;;;;;;;4.20;3.80;;;11.90;99.90;;;;;;4946442;28;20465;-69
2024/03/01 15:50:23;;;;;;;5.90;4.07;;;11.90;99.90;;;;;;4945030;28;20493;-69
2024/03/01 15:52:52;;;;;;;7.03;4.40;;;11.90;99.90;;;;;;4941439;28;21009;-69
2024/03/01 15:55:21;;;;;;;9.27;5.73;;;11.90;99.90;;;;;;4950326;28;20820;-69
2024/03/01 15:57:48;;;;;;;7.40;5.37;;;11.80;99.90;;;;;;4949372;28;20520;-71
2024/03/01 16:00:18;;;;;;;11.53;5.67;;;11.80;99.90;;;;;;4950074;28;20471;-69
2024/03/01 16:02:45;;;;;;;4.87;4.47;;;11.70;99.90;;;;;;4948119;28;20469;-68
2024/03/01 16:05:13;;;;;;;8.43;4.77;;;11.70;99.90;;;;;;4949038;28;20468;-70
2024/03/01 16:07:41;;;;;;;4.60;4.17;;;11.60;99.90;;;;;;4948566;28;20461;-68
2024/03/01 16:10:09;;;;;;;11.27;4.77;;;11.60;99.90;;;;;;4943058;28;20465;-70
2024/03/01 16:12:37;;;;;;;9.53;4.83;;;11.70;99.90;;;;;;4944752;28;20503;-69
2024/03/01 16:15:07;;;;;;;6.90;4.90;;;11.70;99.90;;;;;;4951272;28;20472;-69
2024/03/01 16:17:34;;;;;;;6.30;5.70;;;11.60;99.90;;;;;;4949968;28;20498;-67
2024/03/01 16:20:01;;;;;;;9.17;5.07;;;11.50;99.90;;;;;;4949568;28;20468;-69
2024/03/01 16:22:27;;;;;;;5.77;4.97;;;11.40;99.90;;;;;;4944464;28;20503;-68
2024/03/01 16:24:55;;;;;;;9.43;5.57;;;11.40;99.90;;;;;;4941417;29;20885;-69
2024/03/01 16:27:21;;;;;;;4.70;4.30;;;11.30;99.90;;;;;;4951821;28;20497;-70
2024/03/01 16:29:49;;;;;;;6.77;5.47;;;11.30;99.90;;;;;;4949313;28;20491;-69
2024/03/01 16:32:28;;;;;;;8.90;6.00;;;11.40;99.90;;;;;;4948017;28;20487;-70
2024/03/01 16:34:55;;;;;;;6.47;4.70;;;11.40;99.90;;;;;;4950465;28;20486;-68
2024/03/01 16:37:23;;;;;;;6.47;4.70;;;11.40;99.90;;;;;;4954645;28;20484;-68
2024/03/01 16:39:50;;;;;;;10.23;5.20;;;11.40;99.90;;;;;;4950717;28;20975;-70
2024/03/01 16:42:39;;;;;;;8.93;6.23;;;11.40;99.90;;;;;;4946935;28;20502;-69
2024/03/01 16:45:13;;;;;;;10.60;5.30;;;11.20;99.90;;;;;;4948103;28;20475;-69
2024/03/01 16:47:39;;;;;;;7.70;5.23;;;11.10;99.90;;;;;;4952315;28;20469;-69
2024/03/01 16:50:08;;;;;;;9.57;5.73;;;11.10;99.90;;;;;;4951940;28;20464;-68
2024/03/01 16:52:35;;;;;;;13.03;7.53;;;11.00;99.90;;;;;;4951431;28;20571;-69
2024/03/01 16:55:02;;;;;;;11.90;8.30;;;11.00;99.90;;;;;;4950911;28;20472;-69
2024/03/01 16:57:32;;;;;;;9.50;6.47;;;10.90;99.90;;;;;;4952009;28;21013;-71
2024/03/01 16:59:59;;;;;;;14.93;6.90;;;10.90;99.90;;;;;;4944549;28;20472;-68
2024/03/01 17:02:31;;;;;;;8.30;6.37;;;10.90;99.90;;;;;;4951260;28;20493;-69
2024/03/01 17:04:58;;;;;;;11.27;7.15;;;10.90;99.90;;;;;;4945168;29;20841;-68
2024/03/01 17:07:41;;;;;;;10.50;6.70;;;10.90;99.90;;;;;;4952424;28;20258;-68
2024/03/01 17:10:20;;;;;;;11.27;5.20;;;10.90;99.90;;;;;;4943504;28;20476;-69
2024/03/01 17:12:47;;;;;;;8.80;4.33;;;11.00;99.90;;;;;;4951263;28;20476;-69
2024/03/01 17:15:13;;;;;;;13.40;6.83;;;11.00;99.90;;;;;;4955910;28;20493;-68
2024/03/01 17:17:41;;;;;;;7.77;5.87;;;11.00;99.90;;;;;;4955854;28;20496;-69
2024/03/01 17:20:10;;;;;;;9.80;6.45;;;11.00;99.90;;;;;;4955169;28;20523;-68
2024/03/01 17:22:37;;;;;;;5.30;4.40;;;11.10;99.90;;;;;;4955149;28;20235;-69
2024/03/01 17:25:05;;;;;;;7.43;4.80;;;11.10;99.90;;;;;;4954826;28;20463;-69
2024/03/01 17:27:32;;;;;;;10.47;6.07;;;11.10;99.90;;;;;;4953393;28;20210;-67
2024/03/01 17:29:59;;;;;;;10.23;4.93;;;11.10;99.90;;;;;;4954713;28;20478;-69
2024/03/01 17:32:26;;;;;;;8.32;5.10;;;11.00;99.90;;;;;;4954854;28;20497;-69
2024/03/01 17:34:54;;;;;;;7.88;5.30;;;11.00;99.90;;;;;;4955484;28;20230;-68
2024/03/01 17:37:21;;;;;;;11.23;5.13;;;10.90;99.90;;;;;;4955417;28;20227;-68
2024/03/01 17:39:48;;;;;;;8.50;5.00;;;10.80;99.90;;;;;;4953509;28;20696;-69
2024/03/01 17:42:15;;;;;;;10.53;5.17;;;10.80;99.90;;;;;;4954661;28;20732;-68
2024/03/01 17:44:41;;;;;;;5.75;4.40;;;10.70;99.90;;;;;;4956212;28;20462;-70
2024/03/01 17:47:08;;;;;;;6.77;6.10;;;10.60;99.90;;;;;;4957613;28;20210;-70
2024/03/01 17:49:35;;;;;;;11.63;7.47;;;10.60;99.90;;;;;;4955357;28;20477;-68
2024/03/01 17:52:03;;;;;;;11.63;6.10;;;10.60;99.90;;;;;;4956605;28;20238;-70
2024/03/01 17:54:30;;;;;;;12.50;6.70;;;10.50;99.90;;;;;;4957088;28;20217;-70
2024/03/01 17:56:57;;;;;;;14.55;5.90;;;10.50;99.90;;;;;;4956311;28;20210;-69
2024/03/01 17:59:23;;;;;;;15.10;6.82;;;10.40;99.90;;;;;;4958045;28;20235;-71
2024/03/01 18:01:50;;;;;;;9.32;6.32;;;10.40;99.90;;;;;;4957570;28;20246;-71
2024/03/01 18:04:17;;;;;;;10.75;7.22;;;10.40;99.90;;;;;;4957394;28;20226;-71